sensor_id;sensor_type;location;lat;lon;timestamp;temperature;humidity
68804;SHT31;55787;52.678;13.314;2024-02-14T00:00:09;0.55;98.38
68804;SHT31;55787;52.678;13.314;2024-02-14T00:02:43;0.50;98.59
68804;SHT31;55787;52.678;13.314;2024-02-14T00:05:10;0.46;98.61
68804;SHT31;55787;52.678;13.314;2024-02-14T00:07:38;0.41;98.62
68804;SHT31;55787;52.678;13.314;2024-02-14T00:10:06;0.33;98.59
68804;SHT31;55787;52.678;13.314;2024-02-14T00:12:34;0.33;98.69
68804;SHT31;55787;52.678;13.314;2024-02-14T00:15:05;0.26;98.79
68804;SHT31;55787;52.678;13.314;2024-02-14T00:17:33;0.26;98.92
68804;SHT31;55787;52.678;13.314;2024-02-14T00:20:01;0.28;99.08
68804;SHT31;55787;52.678;13.314;2024-02-14T00:22:30;0.22;99.07
68804;SHT31;55787;52.678;13.314;2024-02-14T00:24:56;0.22;99.27
68804;SHT31;55787;52.678;13.314;2024-02-14T00:27:23;0.18;99.19
68804;SHT31;55787;52.678;13.314;2024-02-14T00:29:51;0.18;99.36
68804;SHT31;55787;52.678;13.314;2024-02-14T00:32:17;0.15;99.39
68804;SHT31;55787;52.678;13.314;2024-02-14T00:34:44;0.14;99.47
68804;SHT31;55787;52.678;13.314;2024-02-14T00:37:12;0.11;99.44
68804;SHT31;55787;52.678;13.314;2024-02-14T00:39:38;0.09;99.47
68804;SHT31;55787;52.678;13.314;2024-02-14T00:42:05;0.09;99.46
68804;SHT31;55787;52.678;13.314;2024-02-14T00:44:32;0.11;99.51
68804;SHT31;55787;52.678;13.314;2024-02-14T00:46:59;0.11;99.65
68804;SHT31;55787;52.678;13.314;2024-02-14T00:49:26;0.17;99.65
68804;SHT31;55787;52.678;13.314;2024-02-14T00:51:53;0.17;99.76
68804;SHT31;55787;52.678;13.314;2024-02-14T00:54:20;0.18;99.84
68804;SHT31;55787;52.678;13.314;2024-02-14T00:56:47;0.24;99.86
68804;SHT31;55787;52.678;13.314;2024-02-14T00:59:13;0.22;99.74
68804;SHT31;55787;52.678;13.314;2024-02-14T01:01:40;0.21;99.73
68804;SHT31;55787;52.678;13.314;2024-02-14T01:04:07;0.19;99.71
68804;SHT31;55787;52.678;13.314;2024-02-14T01:06:34;0.21;99.92
68804;SHT31;55787;52.678;13.314;2024-02-14T01:09:01;0.24;99.99
68804;SHT31;55787;52.678;13.314;2024-02-14T01:11:27;0.24;99.99
68804;SHT31;55787;52.678;13.314;2024-02-14T01:13:55;0.29;99.99
68804;SHT31;55787;52.678;13.314;2024-02-14T01:16:21;0.31;99.99
68804;SHT31;55787;52.678;13.314;2024-02-14T01:18:48;0.28;99.99
68804;SHT31;55787;52.678;13.314;2024-02-14T01:21:15;0.29;99.99
68804;SHT31;55787;52.678;13.314;2024-02-14T01:23:42;0.28;99.95
68804;SHT31;55787;52.678;13.314;2024-02-14T01:26:09;0.29;99.99
68804;SHT31;55787;52.678;13.314;2024-02-14T01:28:36;0.26;99.99
68804;SHT31;55787;52.678;13.314;2024-02-14T01:31:02;0.28;99.99
68804;SHT31;55787;52.678;13.314;2024-02-14T01:33:29;0.26;99.95
68804;SHT31;55787;52.678;13.314;2024-02-14T01:35:57;0.29;99.99
68804;SHT31;55787;52.678;13.314;2024-02-14T01:38:24;0.26;99.99
68804;SHT31;55787;52.678;13.314;2024-02-14T01:40:50;0.25;99.99
68804;SHT31;55787;52.678;13.314;2024-02-14T01:43:19;0.24;99.99
68804;SHT31;55787;52.678;13.314;2024-02-14T01:45:47;0.24;99.99
68804;SHT31;55787;52.678;13.314;2024-02-14T01:48:14;0.24;99.99
68804;SHT31;55787;52.678;13.314;2024-02-14T01:50:45;0.21;99.99
68804;SHT31;55787;52.678;13.314;2024-02-14T01:53:12;0.21;99.99
68804;SHT31;55787;52.678;13.314;2024-02-14T01:55:39;0.22;99.99
68804;SHT31;55787;52.678;13.314;2024-02-14T01:58:07;0.19;99.99
68804;SHT31;55787;52.678;13.314;2024-02-14T02:00:34;0.18;99.99
68804;SHT31;55787;52.678;13.314;2024-02-14T02:03:02;0.18;99.99
68804;SHT31;55787;52.678;13.314;2024-02-14T02:05:29;0.18;99.99
68804;SHT31;55787;52.678;13.314;2024-02-14T02:07:56;0.17;99.99
68804;SHT31;55787;52.678;13.314;2024-02-14T02:10:22;0.19;99.99
68804;SHT31;55787;52.678;13.314;2024-02-14T02:12:58;0.17;99.99
68804;SHT31;55787;52.678;13.314;2024-02-14T02:15:25;0.21;99.99
68804;SHT31;55787;52.678;13.314;2024-02-14T02:17:53;0.22;99.99
68804;SHT31;55787;52.678;13.314;2024-02-14T02:20:20;0.24;99.99
68804;SHT31;55787;52.678;13.314;2024-02-14T02:22:47;0.25;99.99
68804;SHT31;55787;52.678;13.314;2024-02-14T02:25:15;0.24;99.99
68804;SHT31;55787;52.678;13.314;2024-02-14T02:27:41;0.22;99.99
68804;SHT31;55787;52.678;13.314;2024-02-14T02:30:08;0.24;99.99
68804;SHT31;55787;52.678;13.314;2024-02-14T02:32:36;0.24;99.99
68804;SHT31;55787;52.678;13.314;2024-02-14T02:35:04;0.24;99.99
68804;SHT31;55787;52.678;13.314;2024-02-14T02:37:31;0.24;99.99
68804;SHT31;55787;52.678;13.314;2024-02-14T02:39:58;0.26;99.99
68804;SHT31;55787;52.678;13.314;2024-02-14T02:42:24;0.25;99.99
68804;SHT31;55787;52.678;13.314;2024-02-14T02:44:51;0.28;99.99
68804;SHT31;55787;52.678;13.314;2024-02-14T02:47:18;0.28;99.99
68804;SHT31;55787;52.678;13.314;2024-02-14T02:49:44;0.26;99.99
68804;SHT31;55787;52.678;13.314;2024-02-14T02:52:12;0.28;99.99
68804;SHT31;55787;52.678;13.314;2024-02-14T02:54:38;0.32;99.99
68804;SHT31;55787;52.678;13.314;2024-02-14T02:57:10;0.31;99.99
68804;SHT31;55787;52.678;13.314;2024-02-14T02:59:38;0.45;99.99
68804;SHT31;55787;52.678;13.314;2024-02-14T03:02:09;0.55;99.99
68804;SHT31;55787;52.678;13.314;2024-02-14T03:04:38;0.76;99.99
68804;SHT31;55787;52.678;13.314;2024-02-14T03:07:18;0.94;99.99
68804;SHT31;55787;52.678;13.314;2024-02-14T03:09:45;0.99;99.99
68804;SHT31;55787;52.678;13.314;2024-02-14T03:12:11;1.04;99.99
68804;SHT31;55787;52.678;13.314;2024-02-14T03:14:42;1.05;99.99
68804;SHT31;55787;52.678;13.314;2024-02-14T03:17:10;1.14;99.99
68804;SHT31;55787;52.678;13.314;2024-02-14T03:19:37;1.18;99.99
68804;SHT31;55787;52.678;13.314;2024-02-14T03:22:06;1.23;99.87
68804;SHT31;55787;52.678;13.314;2024-02-14T03:24:35;1.30;99.80
68804;SHT31;55787;52.678;13.314;2024-02-14T03:27:04;1.34;99.63
68804;SHT31;55787;52.678;13.314;2024-02-14T03:29:33;1.35;99.41
68804;SHT31;55787;52.678;13.314;2024-02-14T03:32:02;1.35;99.38
68804;SHT31;55787;52.678;13.314;2024-02-14T03:34:31;1.35;99.37
68804;SHT31;55787;52.678;13.314;2024-02-14T03:37:00;1.38;99.25
68804;SHT31;55787;52.678;13.314;2024-02-14T03:39:29;1.38;99.19
68804;SHT31;55787;52.678;13.314;2024-02-14T03:41:55;1.41;99.06
68804;SHT31;55787;52.678;13.314;2024-02-14T03:44:22;1.42;99.08
68804;SHT31;55787;52.678;13.314;2024-02-14T03:46:49;1.42;99.04
68804;SHT31;55787;52.678;13.314;2024-02-14T03:49:16;1.51;98.69
68804;SHT31;55787;52.678;13.314;2024-02-14T03:51:43;1.55;98.09
68804;SHT31;55787;52.678;13.314;2024-02-14T03:54:10;1.55;98.33
68804;SHT31;55787;52.678;13.314;2024-02-14T03:56:38;1.58;98.31
68804;SHT31;55787;52.678;13.314;2024-02-14T03:59:05;1.61;98.30
68804;SHT31;55787;52.678;13.314;2024-02-14T04:01:32;1.61;98.34
68804;SHT31;55787;52.678;13.314;2024-02-14T04:03:59;1.68;98.40
68804;SHT31;55787;52.678;13.314;2024-02-14T04:06:26;1.75;98.06
68804;SHT31;55787;52.678;13.314;2024-02-14T04:08:53;1.76;97.83
68804;SHT31;55787;52.678;13.314;2024-02-14T04:11:20;1.79;97.59
68804;SHT31;55787;52.678;13.314;2024-02-14T04:13:47;1.82;97.72
68804;SHT31;55787;52.678;13.314;2024-02-14T04:16:13;1.83;97.64
68804;SHT31;55787;52.678;13.314;2024-02-14T04:18:40;1.86;97.49
68804;SHT31;55787;52.678;13.314;2024-02-14T04:21:09;1.86;97.51
68804;SHT31;55787;52.678;13.314;2024-02-14T04:23:36;1.92;97.43
68804;SHT31;55787;52.678;13.314;2024-02-14T04:26:03;1.95;97.20
68804;SHT31;55787;52.678;13.314;2024-02-14T04:28:30;1.90;97.11
68804;SHT31;55787;52.678;13.314;2024-02-14T04:30:56;1.89;97.19
68804;SHT31;55787;52.678;13.314;2024-02-14T04:33:23;1.89;97.29
68804;SHT31;55787;52.678;13.314;2024-02-14T04:35:50;1.93;97.23
68804;SHT31;55787;52.678;13.314;2024-02-14T04:38:17;1.93;97.14
68804;SHT31;55787;52.678;13.314;2024-02-14T04:40:46;1.92;97.27
68804;SHT31;55787;52.678;13.314;2024-02-14T04:43:12;1.95;97.23
68804;SHT31;55787;52.678;13.314;2024-02-14T04:45:39;1.98;97.13
68804;SHT31;55787;52.678;13.314;2024-02-14T04:48:06;1.99;97.16
68804;SHT31;55787;52.678;13.314;2024-02-14T04:50:34;2.02;97.15
68804;SHT31;55787;52.678;13.314;2024-02-14T04:53:01;2.03;97.13
68804;SHT31;55787;52.678;13.314;2024-02-14T04:55:27;2.09;97.08
68804;SHT31;55787;52.678;13.314;2024-02-14T04:57:55;2.09;97.09
68804;SHT31;55787;52.678;13.314;2024-02-14T05:00:22;2.07;97.12
68804;SHT31;55787;52.678;13.314;2024-02-14T05:02:49;2.11;97.11
68804;SHT31;55787;52.678;13.314;2024-02-14T05:05:16;2.13;97.16
68804;SHT31;55787;52.678;13.314;2024-02-14T05:07:43;2.20;97.00
68804;SHT31;55787;52.678;13.314;2024-02-14T05:10:09;2.24;97.09
68804;SHT31;55787;52.678;13.314;2024-02-14T05:12:36;2.30;96.93
68804;SHT31;55787;52.678;13.314;2024-02-14T05:15:03;2.33;96.95
68804;SHT31;55787;52.678;13.314;2024-02-14T05:17:30;2.36;96.98
68804;SHT31;55787;52.678;13.314;2024-02-14T05:19:58;2.38;96.95
68804;SHT31;55787;52.678;13.314;2024-02-14T05:22:24;2.40;96.82
68804;SHT31;55787;52.678;13.314;2024-02-14T05:24:51;2.54;96.26
68804;SHT31;55787;52.678;13.314;2024-02-14T05:27:17;2.54;95.99
68804;SHT31;55787;52.678;13.314;2024-02-14T05:29:44;2.60;96.05
68804;SHT31;55787;52.678;13.314;2024-02-14T05:32:11;2.66;95.79
68804;SHT31;55787;52.678;13.314;2024-02-14T05:34:37;2.75;95.43
68804;SHT31;55787;52.678;13.314;2024-02-14T05:37:04;2.72;95.28
68804;SHT31;55787;52.678;13.314;2024-02-14T05:39:32;2.77;95.31
68804;SHT31;55787;52.678;13.314;2024-02-14T05:41:58;2.85;95.11
68804;SHT31;55787;52.678;13.314;2024-02-14T05:44:25;2.89;94.99
68804;SHT31;55787;52.678;13.314;2024-02-14T05:46:53;2.92;94.52
68804;SHT31;55787;52.678;13.314;2024-02-14T05:49:22;2.84;94.88
68804;SHT31;55787;52.678;13.314;2024-02-14T05:51:49;2.84;94.98
68804;SHT31;55787;52.678;13.314;2024-02-14T05:54:17;2.98;94.75
68804;SHT31;55787;52.678;13.314;2024-02-14T05:56:43;3.05;94.16
68804;SHT31;55787;52.678;13.314;2024-02-14T05:59:11;3.05;94.26
68804;SHT31;55787;52.678;13.314;2024-02-14T06:01:38;2.99;94.35
68804;SHT31;55787;52.678;13.314;2024-02-14T06:04:05;3.01;94.56
68804;SHT31;55787;52.678;13.314;2024-02-14T06:06:31;3.06;94.25
68804;SHT31;55787;52.678;13.314;2024-02-14T06:08:58;3.10;94.16
68804;SHT31;55787;52.678;13.314;2024-02-14T06:11:25;3.15;94.09
68804;SHT31;55787;52.678;13.314;2024-02-14T06:13:51;3.18;94.05
68804;SHT31;55787;52.678;13.314;2024-02-14T06:16:18;3.18;94.04
68804;SHT31;55787;52.678;13.314;2024-02-14T06:18:45;3.23;93.72
68804;SHT31;55787;52.678;13.314;2024-02-14T06:21:12;3.18;93.77
68804;SHT31;55787;52.678;13.314;2024-02-14T06:23:39;3.22;93.87
68804;SHT31;55787;52.678;13.314;2024-02-14T06:26:06;3.18;93.84
68804;SHT31;55787;52.678;13.314;2024-02-14T06:28:33;3.15;94.00
68804;SHT31;55787;52.678;13.314;2024-02-14T06:31:00;3.13;93.97
68804;SHT31;55787;52.678;13.314;2024-02-14T06:33:27;3.18;93.92
68804;SHT31;55787;52.678;13.314;2024-02-14T06:35:55;3.20;93.61
68804;SHT31;55787;52.678;13.314;2024-02-14T06:38:21;3.22;93.76
68804;SHT31;55787;52.678;13.314;2024-02-14T06:40:49;3.23;93.84
68804;SHT31;55787;52.678;13.314;2024-02-14T06:43:15;3.24;93.64
68804;SHT31;55787;52.678;13.314;2024-02-14T06:45:42;3.26;93.71
68804;SHT31;55787;52.678;13.314;2024-02-14T06:48:10;3.23;93.94
68804;SHT31;55787;52.678;13.314;2024-02-14T06:50:36;3.22;94.17
68804;SHT31;55787;52.678;13.314;2024-02-14T06:53:04;3.36;93.55
68804;SHT31;55787;52.678;13.314;2024-02-14T06:55:31;3.32;93.80
68804;SHT31;55787;52.678;13.314;2024-02-14T06:57:59;3.39;93.82
68804;SHT31;55787;52.678;13.314;2024-02-14T07:00:26;3.49;93.35
68804;SHT31;55787;52.678;13.314;2024-02-14T07:02:55;3.49;93.31
68804;SHT31;55787;52.678;13.314;2024-02-14T07:05:21;3.49;93.21
68804;SHT31;55787;52.678;13.314;2024-02-14T07:07:48;3.49;93.18
68804;SHT31;55787;52.678;13.314;2024-02-14T07:10:15;3.44;93.29
68804;SHT31;55787;52.678;13.314;2024-02-14T07:12:41;3.46;93.62
68804;SHT31;55787;52.678;13.314;2024-02-14T07:15:08;3.43;93.72
68804;SHT31;55787;52.678;13.314;2024-02-14T07:17:35;3.53;93.67
68804;SHT31;55787;52.678;13.314;2024-02-14T07:20:02;3.63;93.11
68804;SHT31;55787;52.678;13.314;2024-02-14T07:22:29;3.60;93.29
68804;SHT31;55787;52.678;13.314;2024-02-14T07:25:00;3.64;93.29
68804;SHT31;55787;52.678;13.314;2024-02-14T07:27:27;3.64;93.48
68804;SHT31;55787;52.678;13.314;2024-02-14T07:29:53;3.66;93.60
68804;SHT31;55787;52.678;13.314;2024-02-14T07:32:20;3.69;93.81
68804;SHT31;55787;52.678;13.314;2024-02-14T07:34:47;3.74;93.93
68804;SHT31;55787;52.678;13.314;2024-02-14T07:37:14;3.78;93.93
68804;SHT31;55787;52.678;13.314;2024-02-14T07:39:42;3.87;93.64
68804;SHT31;55787;52.678;13.314;2024-02-14T07:42:09;3.95;93.02
68804;SHT31;55787;52.678;13.314;2024-02-14T07:44:36;4.02;92.85
68804;SHT31;55787;52.678;13.314;2024-02-14T07:47:03;4.12;92.20
68804;SHT31;55787;52.678;13.314;2024-02-14T07:49:33;4.19;91.56
68804;SHT31;55787;52.678;13.314;2024-02-14T07:51:59;4.26;91.68
68804;SHT31;55787;52.678;13.314;2024-02-14T07:54:26;4.33;91.29
68804;SHT31;55787;52.678;13.314;2024-02-14T07:56:53;4.43;91.30
68804;SHT31;55787;52.678;13.314;2024-02-14T07:59:19;4.48;90.96
68804;SHT31;55787;52.678;13.314;2024-02-14T08:01:47;4.62;90.52
68804;SHT31;55787;52.678;13.314;2024-02-14T08:04:14;4.74;89.82
68804;SHT31;55787;52.678;13.314;2024-02-14T08:06:42;4.80;89.81
68804;SHT31;55787;52.678;13.314;2024-02-14T08:09:10;4.83;89.33
68804;SHT31;55787;52.678;13.314;2024-02-14T08:11:37;4.88;88.96
68804;SHT31;55787;52.678;13.314;2024-02-14T08:14:05;4.85;88.93
68804;SHT31;55787;52.678;13.314;2024-02-14T08:16:32;4.83;89.50
68804;SHT31;55787;52.678;13.314;2024-02-14T08:18:59;4.93;89.67
68804;SHT31;55787;52.678;13.314;2024-02-14T08:21:27;5.00;89.51
68804;SHT31;55787;52.678;13.314;2024-02-14T08:23:57;5.02;89.40
68804;SHT31;55787;52.678;13.314;2024-02-14T08:26:27;5.05;89.36
68804;SHT31;55787;52.678;13.314;2024-02-14T08:28:54;5.01;89.41
68804;SHT31;55787;52.678;13.314;2024-02-14T08:31:21;5.12;90.11
68804;SHT31;55787;52.678;13.314;2024-02-14T08:33:47;5.21;90.39
68804;SHT31;55787;52.678;13.314;2024-02-14T08:36:14;5.25;89.88
68804;SHT31;55787;52.678;13.314;2024-02-14T08:38:43;5.36;89.46
68804;SHT31;55787;52.678;13.314;2024-02-14T08:41:10;5.51;89.59
68804;SHT31;55787;52.678;13.314;2024-02-14T08:43:37;5.60;88.38
68804;SHT31;55787;52.678;13.314;2024-02-14T08:46:09;5.63;89.28
68804;SHT31;55787;52.678;13.314;2024-02-14T08:48:37;5.69;88.79
68804;SHT31;55787;52.678;13.314;2024-02-14T08:51:08;5.69;88.59
68804;SHT31;55787;52.678;13.314;2024-02-14T08:53:35;5.72;88.30
68804;SHT31;55787;52.678;13.314;2024-02-14T08:56:03;5.77;88.52
68804;SHT31;55787;52.678;13.314;2024-02-14T08:58:29;5.85;89.03
68804;SHT31;55787;52.678;13.314;2024-02-14T09:00:56;6.06;88.02
68804;SHT31;55787;52.678;13.314;2024-02-14T09:03:38;6.04;87.49
68804;SHT31;55787;52.678;13.314;2024-02-14T09:06:05;6.06;87.58
68804;SHT31;55787;52.678;13.314;2024-02-14T09:08:32;6.07;87.61
68804;SHT31;55787;52.678;13.314;2024-02-14T09:10:58;5.96;87.61
68804;SHT31;55787;52.678;13.314;2024-02-14T09:13:26;5.86;89.43
68804;SHT31;55787;52.678;13.314;2024-02-14T09:15:53;5.87;89.24
68804;SHT31;55787;52.678;13.314;2024-02-14T09:18:21;5.77;89.81
68804;SHT31;55787;52.678;13.314;2024-02-14T09:20:47;5.86;90.27
68804;SHT31;55787;52.678;13.314;2024-02-14T09:23:17;5.89;90.03
68804;SHT31;55787;52.678;13.314;2024-02-14T09:25:49;5.86;91.06
68804;SHT31;55787;52.678;13.314;2024-02-14T09:28:16;5.74;91.31
68804;SHT31;55787;52.678;13.314;2024-02-14T09:30:42;5.66;92.94
68804;SHT31;55787;52.678;13.314;2024-02-14T09:33:09;5.76;93.13
68804;SHT31;55787;52.678;13.314;2024-02-14T09:35:37;5.83;92.96
68804;SHT31;55787;52.678;13.314;2024-02-14T09:38:06;5.83;93.25
68804;SHT31;55787;52.678;13.314;2024-02-14T09:40:32;5.74;93.57
68804;SHT31;55787;52.678;13.314;2024-02-14T09:43:03;5.66;94.77
68804;SHT31;55787;52.678;13.314;2024-02-14T09:45:31;5.55;94.87
68804;SHT31;55787;52.678;13.314;2024-02-14T09:48:00;5.52;95.36
68804;SHT31;55787;52.678;13.314;2024-02-14T09:50:29;5.58;95.12
68804;SHT31;55787;52.678;13.314;2024-02-14T09:52:58;5.60;95.70
68804;SHT31;55787;52.678;13.314;2024-02-14T09:55:25;5.65;95.71
68804;SHT31;55787;52.678;13.314;2024-02-14T09:57:54;5.66;96.29
68804;SHT31;55787;52.678;13.314;2024-02-14T10:00:22;5.73;96.27
68804;SHT31;55787;52.678;13.314;2024-02-14T10:02:49;5.87;96.07
68804;SHT31;55787;52.678;13.314;2024-02-14T10:05:16;6.04;95.47
68804;SHT31;55787;52.678;13.314;2024-02-14T10:07:44;6.13;95.43
68804;SHT31;55787;52.678;13.314;2024-02-14T10:10:11;6.11;95.55
68804;SHT31;55787;52.678;13.314;2024-02-14T10:12:38;6.16;95.81
68804;SHT31;55787;52.678;13.314;2024-02-14T10:15:07;6.24;95.62
68804;SHT31;55787;52.678;13.314;2024-02-14T10:17:34;6.23;95.40
68804;SHT31;55787;52.678;13.314;2024-02-14T10:20:02;6.38;95.69
68804;SHT31;55787;52.678;13.314;2024-02-14T10:22:35;6.41;95.95
68804;SHT31;55787;52.678;13.314;2024-02-14T10:25:04;6.64;95.11
68804;SHT31;55787;52.678;13.314;2024-02-14T10:27:31;6.52;95.26
68804;SHT31;55787;52.678;13.314;2024-02-14T10:30:01;6.78;94.74
68804;SHT31;55787;52.678;13.314;2024-02-14T10:32:27;6.93;94.20
68804;SHT31;55787;52.678;13.314;2024-02-14T10:34:54;6.78;95.31
68804;SHT31;55787;52.678;13.314;2024-02-14T10:37:21;7.20;94.70
68804;SHT31;55787;52.678;13.314;2024-02-14T10:39:49;7.37;94.31
68804;SHT31;55787;52.678;13.314;2024-02-14T10:42:19;7.02;94.15
68804;SHT31;55787;52.678;13.314;2024-02-14T10:44:45;6.96;94.84
68804;SHT31;55787;52.678;13.314;2024-02-14T10:47:19;7.02;94.92
68804;SHT31;55787;52.678;13.314;2024-02-14T10:49:48;7.14;94.55
68804;SHT31;55787;52.678;13.314;2024-02-14T10:52:16;7.17;94.47
68804;SHT31;55787;52.678;13.314;2024-02-14T10:54:54;7.35;94.39
68804;SHT31;55787;52.678;13.314;2024-02-14T10:57:27;7.47;93.71
68804;SHT31;55787;52.678;13.314;2024-02-14T10:59:56;7.60;93.46
68804;SHT31;55787;52.678;13.314;2024-02-14T11:02:24;7.65;93.62
68804;SHT31;55787;52.678;13.314;2024-02-14T11:04:51;7.91;92.45
68804;SHT31;55787;52.678;13.314;2024-02-14T11:07:20;7.79;92.16
68804;SHT31;55787;52.678;13.314;2024-02-14T11:12:35;7.20;94.21
68804;SHT31;55787;52.678;13.314;2024-02-14T11:15:29;7.38;94.86
68804;SHT31;55787;52.678;13.314;2024-02-14T11:18:05;7.26;95.12
68804;SHT31;55787;52.678;13.314;2024-02-14T11:20:35;7.31;95.33
68804;SHT31;55787;52.678;13.314;2024-02-14T11:23:04;7.26;95.71
68804;SHT31;55787;52.678;13.314;2024-02-14T11:25:33;7.24;95.88
68804;SHT31;55787;52.678;13.314;2024-02-14T11:28:23;7.28;95.60
68804;SHT31;55787;52.678;13.314;2024-02-14T11:30:52;7.27;96.00
68804;SHT31;55787;52.678;13.314;2024-02-14T11:33:20;7.28;95.93
68804;SHT31;55787;52.678;13.314;2024-02-14T11:35:50;7.34;96.07
68804;SHT31;55787;52.678;13.314;2024-02-14T11:38:19;7.14;96.35
68804;SHT31;55787;52.678;13.314;2024-02-14T11:40:46;7.27;96.67
68804;SHT31;55787;52.678;13.314;2024-02-14T11:43:14;7.37;96.81
68804;SHT31;55787;52.678;13.314;2024-02-14T11:45:41;7.16;97.15
68804;SHT31;55787;52.678;13.314;2024-02-14T11:48:09;7.09;97.42
68804;SHT31;55787;52.678;13.314;2024-02-14T11:50:39;7.12;97.47
68804;SHT31;55787;52.678;13.314;2024-02-14T11:53:07;7.12;97.76
68804;SHT31;55787;52.678;13.314;2024-02-14T11:55:38;7.14;97.12
68804;SHT31;55787;52.678;13.314;2024-02-14T11:58:09;7.09;97.74
68804;SHT31;55787;52.678;13.314;2024-02-14T12:00:41;7.07;97.38
68804;SHT31;55787;52.678;13.314;2024-02-14T12:03:12;7.09;97.92
68804;SHT31;55787;52.678;13.314;2024-02-14T12:05:39;7.13;97.70
68804;SHT31;55787;52.678;13.314;2024-02-14T12:08:08;7.26;97.68
68804;SHT31;55787;52.678;13.314;2024-02-14T12:10:36;7.33;97.59
68804;SHT31;55787;52.678;13.314;2024-02-14T12:13:11;7.43;97.23
68804;SHT31;55787;52.678;13.314;2024-02-14T12:15:39;7.51;96.92
68804;SHT31;55787;52.678;13.314;2024-02-14T12:18:08;7.47;97.83
68804;SHT31;55787;52.678;13.314;2024-02-14T12:20:40;7.61;97.32
68804;SHT31;55787;52.678;13.314;2024-02-14T12:23:07;7.50;97.27
68804;SHT31;55787;52.678;13.314;2024-02-14T12:25:34;7.50;97.35
68804;SHT31;55787;52.678;13.314;2024-02-14T12:28:00;7.47;97.70
68804;SHT31;55787;52.678;13.314;2024-02-14T12:30:43;7.61;97.46
68804;SHT31;55787;52.678;13.314;2024-02-14T12:33:13;7.79;97.03
68804;SHT31;55787;52.678;13.314;2024-02-14T12:35:44;7.71;97.28
68804;SHT31;55787;52.678;13.314;2024-02-14T12:38:12;7.75;97.93
68804;SHT31;55787;52.678;13.314;2024-02-14T12:40:40;7.77;97.48
68804;SHT31;55787;52.678;13.314;2024-02-14T12:43:12;7.85;97.65
68804;SHT31;55787;52.678;13.314;2024-02-14T12:45:40;7.84;97.54
68804;SHT31;55787;52.678;13.314;2024-02-14T12:48:09;7.91;97.61
68804;SHT31;55787;52.678;13.314;2024-02-14T12:50:37;8.06;97.25
68804;SHT31;55787;52.678;13.314;2024-02-14T12:53:05;7.95;97.15
68804;SHT31;55787;52.678;13.314;2024-02-14T12:55:31;7.99;97.34
68804;SHT31;55787;52.678;13.314;2024-02-14T12:57:58;8.02;97.66
68804;SHT31;55787;52.678;13.314;2024-02-14T13:00:25;7.98;96.96
68804;SHT31;55787;52.678;13.314;2024-02-14T13:02:53;8.03;97.51
68804;SHT31;55787;52.678;13.314;2024-02-14T13:05:20;7.99;97.66
68804;SHT31;55787;52.678;13.314;2024-02-14T13:07:47;7.96;98.31
68804;SHT31;55787;52.678;13.314;2024-02-14T13:10:13;7.99;98.07
68804;SHT31;55787;52.678;13.314;2024-02-14T13:12:40;8.01;97.85
68804;SHT31;55787;52.678;13.314;2024-02-14T13:15:07;8.05;98.28
68804;SHT31;55787;52.678;13.314;2024-02-14T13:17:34;7.94;98.66
68804;SHT31;55787;52.678;13.314;2024-02-14T13:20:01;7.88;99.29
68804;SHT31;55787;52.678;13.314;2024-02-14T13:22:28;8.03;98.97
68804;SHT31;55787;52.678;13.314;2024-02-14T13:24:55;7.92;99.41
68804;SHT31;55787;52.678;13.314;2024-02-14T13:27:22;7.99;99.31
68804;SHT31;55787;52.678;13.314;2024-02-14T13:29:50;8.10;99.16
68804;SHT31;55787;52.678;13.314;2024-02-14T13:32:16;8.06;99.51
68804;SHT31;55787;52.678;13.314;2024-02-14T13:34:43;7.98;99.43
68804;SHT31;55787;52.678;13.314;2024-02-14T13:37:12;8.06;99.46
68804;SHT31;55787;52.678;13.314;2024-02-14T13:39:42;8.05;99.70
68804;SHT31;55787;52.678;13.314;2024-02-14T13:42:08;8.05;99.79
68804;SHT31;55787;52.678;13.314;2024-02-14T13:44:35;8.06;99.98
68804;SHT31;55787;52.678;13.314;2024-02-14T13:47:01;8.10;99.96
68804;SHT31;55787;52.678;13.314;2024-02-14T13:49:29;8.06;99.95
68804;SHT31;55787;52.678;13.314;2024-02-14T13:51:56;8.12;99.85
68804;SHT31;55787;52.678;13.314;2024-02-14T13:54:24;8.03;99.99
68804;SHT31;55787;52.678;13.314;2024-02-14T13:56:51;8.06;99.99
68804;SHT31;55787;52.678;13.314;2024-02-14T13:59:18;8.12;99.99
68804;SHT31;55787;52.678;13.314;2024-02-14T14:01:45;8.07;99.99
68804;SHT31;55787;52.678;13.314;2024-02-14T14:04:13;8.10;99.99
68804;SHT31;55787;52.678;13.314;2024-02-14T14:06:40;8.15;99.99
68804;SHT31;55787;52.678;13.314;2024-02-14T14:09:07;8.26;99.99
68804;SHT31;55787;52.678;13.314;2024-02-14T14:11:35;8.25;99.99
68804;SHT31;55787;52.678;13.314;2024-02-14T14:14:01;8.29;99.99
68804;SHT31;55787;52.678;13.314;2024-02-14T14:16:28;8.26;99.99
68804;SHT31;55787;52.678;13.314;2024-02-14T14:18:55;8.23;99.99
68804;SHT31;55787;52.678;13.314;2024-02-14T14:21:21;8.19;99.99
68804;SHT31;55787;52.678;13.314;2024-02-14T14:23:48;8.21;99.99
68804;SHT31;55787;52.678;13.314;2024-02-14T14:26:15;8.15;99.99
68804;SHT31;55787;52.678;13.314;2024-02-14T14:28:42;8.23;99.99
68804;SHT31;55787;52.678;13.314;2024-02-14T14:31:09;8.23;99.99
68804;SHT31;55787;52.678;13.314;2024-02-14T14:33:38;8.23;99.99
68804;SHT31;55787;52.678;13.314;2024-02-14T14:36:08;8.30;99.99
68804;SHT31;55787;52.678;13.314;2024-02-14T14:38:35;8.29;99.99
68804;SHT31;55787;52.678;13.314;2024-02-14T14:41:02;8.33;99.99
68804;SHT31;55787;52.678;13.314;2024-02-14T14:43:29;8.33;99.99
68804;SHT31;55787;52.678;13.314;2024-02-14T14:45:55;8.33;99.99
68804;SHT31;55787;52.678;13.314;2024-02-14T14:48:25;8.34;99.99
68804;SHT31;55787;52.678;13.314;2024-02-14T14:50:52;8.33;99.99
68804;SHT31;55787;52.678;13.314;2024-02-14T14:53:19;8.36;99.99
68804;SHT31;55787;52.678;13.314;2024-02-14T14:55:56;8.36;99.99
68804;SHT31;55787;52.678;13.314;2024-02-14T14:58:24;8.37;99.99
68804;SHT31;55787;52.678;13.314;2024-02-14T15:00:55;8.42;99.99
68804;SHT31;55787;52.678;13.314;2024-02-14T15:03:22;8.40;99.99
68804;SHT31;55787;52.678;13.314;2024-02-14T15:05:50;8.46;99.99
68804;SHT31;55787;52.678;13.314;2024-02-14T15:08:17;8.46;99.99
68804;SHT31;55787;52.678;13.314;2024-02-14T15:10:50;8.46;99.99
68804;SHT31;55787;52.678;13.314;2024-02-14T15:13:19;8.49;99.99
68804;SHT31;55787;52.678;13.314;2024-02-14T15:15:45;8.53;99.99
68804;SHT31;55787;52.678;13.314;2024-02-14T15:18:12;8.53;99.99
68804;SHT31;55787;52.678;13.314;2024-02-14T15:20:39;8.46;99.99
68804;SHT31;55787;52.678;13.314;2024-02-14T15:23:06;8.47;99.99
68804;SHT31;55787;52.678;13.314;2024-02-14T15:25:34;8.49;99.99
68804;SHT31;55787;52.678;13.314;2024-02-14T15:28:07;8.47;99.99
68804;SHT31;55787;52.678;13.314;2024-02-14T15:30:39;8.47;99.99
68804;SHT31;55787;52.678;13.314;2024-02-14T15:33:24;8.50;99.99
68804;SHT31;55787;52.678;13.314;2024-02-14T15:35:53;8.52;99.99